createdAt,value
2019-03-01T00:01:18.207Z,3.93
2019-03-01T00:06:29.313Z,5.70
2019-03-01T00:11:37.151Z,6.33
2019-03-01T00:17:00.211Z,5.73
2019-03-01T00:22:24.703Z,5.70
2019-03-01T00:27:48.092Z,6.63
2019-03-01T00:32:57.325Z,5.97
2019-03-01T00:38:18.998Z,5.37
2019-03-01T00:43:25.775Z,7.77
2019-03-01T00:48:29.119Z,7.40
2019-03-01T00:53:32.808Z,7.63
2019-03-01T00:58:36.459Z,6.00
2019-03-01T01:03:40.149Z,5.03
2019-03-01T01:08:43.871Z,5.33
2019-03-01T01:13:46.954Z,5.33
2019-03-01T01:18:50.361Z,6.83
2019-03-01T01:23:53.773Z,6.23
2019-03-01T01:28:57.244Z,6.27
2019-03-01T01:34:00.947Z,6.70
2019-03-01T01:39:07.375Z,6.40
2019-03-01T01:44:10.462Z,5.77
2019-03-01T01:49:14.166Z,7.07
2019-03-01T01:54:17.889Z,5.00
2019-03-01T01:59:21.314Z,6.03
2019-03-01T02:04:24.931Z,4.60
2019-03-01T02:09:28.350Z,4.70
2019-03-01T02:14:31.750Z,7.10
2019-03-01T02:19:35.179Z,6.13
2019-03-01T02:24:38.262Z,3.87
2019-03-01T02:29:41.590Z,4.50
2019-03-01T02:34:45.049Z,5.80
2019-03-01T02:39:48.455Z,3.40
2019-03-01T02:44:51.852Z,6.33
2019-03-01T02:49:55.263Z,6.13
2019-03-01T02:54:58.347Z,5.30
2019-03-01T03:00:01.414Z,6.57
2019-03-01T03:05:08.150Z,5.77
2019-03-01T03:10:12.837Z,5.63
2019-03-01T03:15:17.998Z,6.70
2019-03-01T03:20:21.482Z,7.70
2019-03-01T03:25:24.887Z,4.53
2019-03-01T03:30:28.429Z,6.13
2019-03-01T03:35:31.634Z,6.33
2019-03-01T03:40:35.063Z,6.43
2019-03-01T03:45:38.131Z,6.53
2019-03-01T03:50:41.869Z,6.83
2019-03-01T03:55:45.301Z,5.47
2019-03-01T04:00:48.836Z,5.67
2019-03-01T04:05:52.621Z,8.03
2019-03-01T04:10:56.337Z,3.87
2019-03-01T04:15:59.822Z,5.43
2019-03-01T04:21:03.176Z,6.40
2019-03-01T04:26:06.615Z,5.60
2019-03-01T04:31:10.011Z,5.13
2019-03-01T04:36:13.452Z,3.73
2019-03-01T04:41:16.554Z,4.77
2019-03-01T04:46:20.234Z,4.27
2019-03-01T04:51:23.710Z,3.47
2019-03-01T04:56:26.874Z,6.80
2019-03-01T05:01:30.588Z,4.17
2019-03-01T05:06:34.306Z,5.40
2019-03-01T05:11:37.377Z,5.90
2019-03-01T05:16:40.769Z,7.13
2019-03-01T05:21:44.227Z,4.17
2019-03-01T05:26:47.961Z,3.20
2019-03-01T05:31:51.287Z,3.77
2019-03-01T05:36:54.790Z,2.87
2019-03-01T05:41:58.204Z,4.70
2019-03-01T05:47:01.258Z,3.77
2019-03-01T05:52:04.654Z,3.87
2019-03-01T05:57:08.050Z,3.90
2019-03-01T06:02:24.658Z,3.93
2019-03-01T06:07:48.950Z,4.13
2019-03-01T06:12:56.505Z,3.27
2019-03-01T06:18:09.891Z,3.03
2019-03-01T06:23:28.331Z,2.70
2019-03-01T06:28:39.007Z,3.40
2019-03-01T06:34:00.274Z,3.20
2019-03-01T06:39:41.638Z,3.77
2019-03-01T06:44:55.698Z,4.43
2019-03-01T06:50:06.961Z,4.67
2019-03-01T06:55:11.827Z,7.73
2019-03-01T07:00:14.900Z,7.20
2019-03-01T07:05:19.942Z,7.63
2019-03-01T07:10:23.622Z,9.80
2019-03-01T07:15:26.692Z,11.97
2019-03-01T07:20:30.002Z,13.27
2019-03-01T07:25:33.654Z,14.40
2019-03-01T07:30:37.082Z,18.20
2019-03-01T07:35:40.493Z,19.63
2019-03-01T07:40:43.838Z,16.37
2019-03-01T07:45:47.236Z,17.27
2019-03-01T07:50:52.464Z,19.70
2019-03-01T07:55:55.104Z,20.73
2019-03-01T08:00:58.507Z,20.70
2019-03-01T08:06:02.206Z,23.40
2019-03-01T08:11:05.928Z,31.37
2019-03-01T08:16:09.003Z,29.07
2019-03-01T08:21:14.836Z,39.83
2019-03-01T08:26:17.727Z,43.27
2019-03-01T08:31:22.050Z,53.00
2019-03-01T08:36:25.974Z,61.47
2019-03-01T08:41:29.113Z,65.20
2019-03-01T08:46:32.806Z,69.83
2019-03-01T08:51:36.250Z,77.67
2019-03-01T08:56:39.365Z,91.20
2019-03-01T09:01:45.007Z,94.73
2019-03-01T09:06:48.163Z,104.27
2019-03-01T09:11:52.342Z,105.47
2019-03-01T09:16:55.738Z,95.77
2019-03-01T09:21:58.851Z,93.53
2019-03-01T09:27:02.590Z,97.20
2019-03-01T09:32:05.662Z,105.87
2019-03-01T09:37:08.970Z,111.03
2019-03-01T09:42:15.593Z,110.87
2019-03-01T09:47:17.453Z,99.45
2019-03-01T09:52:23.718Z,96.87
2019-03-01T09:57:26.314Z,110.37
2019-03-01T10:02:29.672Z,112.37
2019-03-01T10:07:33.082Z,115.20
2019-03-01T10:12:36.486Z,121.20
2019-03-01T10:17:39.564Z,101.00
2019-03-01T10:22:43.024Z,85.53
2019-03-01T10:27:46.829Z,88.77
2019-03-01T10:32:50.230Z,87.50
2019-03-01T10:37:53.826Z,90.50
2019-03-01T10:42:57.120Z,98.63
2019-03-01T10:48:00.731Z,93.67
2019-03-01T10:53:03.806Z,104.23
2019-03-01T10:58:07.131Z,106.47
2019-03-01T11:03:10.214Z,113.43
2019-03-01T11:08:13.623Z,103.17
2019-03-01T11:13:17.061Z,86.57
2019-03-01T11:18:20.782Z,96.70
2019-03-01T11:23:23.855Z,97.83
2019-03-01T11:28:26.930Z,84.23
2019-03-01T11:33:30.046Z,84.60
2019-03-01T11:38:33.358Z,80.57
2019-03-01T11:43:37.152Z,78.57
2019-03-01T11:48:40.567Z,74.37
2019-03-01T11:53:43.990Z,71.17
2019-03-01T11:58:47.695Z,85.37
2019-03-01T12:03:51.412Z,82.60
2019-03-01T12:08:55.139Z,91.17
2019-03-01T12:13:58.245Z,81.10
2019-03-01T12:19:01.686Z,83.27
2019-03-01T12:24:05.099Z,87.67
2019-03-01T12:29:08.493Z,84.50
2019-03-01T12:34:12.221Z,81.08
2019-03-01T12:39:15.614Z,78.70
2019-03-01T12:44:18.692Z,75.30
2019-03-01T12:49:21.770Z,77.50
2019-03-01T12:54:25.462Z,77.57
2019-03-01T12:59:28.815Z,65.77
2019-03-01T13:04:32.200Z,63.07
2019-03-01T13:09:35.606Z,63.47
2019-03-01T13:14:40.372Z,62.40
2019-03-01T13:19:43.825Z,60.07
2019-03-01T13:24:46.902Z,65.30
2019-03-01T13:29:50.591Z,92.73
2019-03-01T13:34:54.005Z,99.23
2019-03-01T13:39:57.088Z,87.40
2019-03-01T13:45:00.441Z,80.87
2019-03-01T13:50:06.781Z,82.63
2019-03-01T13:55:10.008Z,74.93
2019-03-01T14:00:20.803Z,75.63
2019-03-01T14:05:24.541Z,75.73
2019-03-01T14:10:28.611Z,71.70
2019-03-01T14:15:35.086Z,62.90
2019-03-01T14:20:37.194Z,57.47
2019-03-01T14:25:41.628Z,63.07
2019-03-01T14:30:45.833Z,54.20
2019-03-01T14:35:49.232Z,54.73
2019-03-01T14:40:52.871Z,47.97
2019-03-01T14:45:55.955Z,47.60
2019-03-01T14:50:59.033Z,41.80
2019-03-01T14:56:08.101Z,39.93
2019-03-01T15:01:26.625Z,41.57
2019-03-01T15:06:28.863Z,36.90
2019-03-01T15:11:32.269Z,28.83
2019-03-01T15:16:35.423Z,26.57
2019-03-01T15:21:38.510Z,32.47
2019-03-01T15:26:42.277Z,27.83
2019-03-01T15:31:47.033Z,36.07
2019-03-01T15:36:52.414Z,46.27
2019-03-01T15:41:55.542Z,71.67
2019-03-01T15:46:58.956Z,104.03
2019-03-01T15:52:02.666Z,112.83
2019-03-01T15:57:06.628Z,121.73
2019-03-01T16:02:11.030Z,79.10
2019-03-01T16:07:14.458Z,64.30
2019-03-01T16:12:18.163Z,54.10
2019-03-01T16:17:21.916Z,49.73
2019-03-01T16:22:27.073Z,48.30
2019-03-01T16:27:30.498Z,41.87
2019-03-01T16:32:33.912Z,42.20
2019-03-01T16:37:37.819Z,38.47
2019-03-01T16:42:41.341Z,37.30
2019-03-01T16:47:44.711Z,33.00
2019-03-01T16:52:48.189Z,43.13
2019-03-01T16:57:52.405Z,38.73
2019-03-01T17:03:09.397Z,31.83
2019-03-01T17:08:14.059Z,33.13
2019-03-01T17:13:17.791Z,40.43
2019-03-01T17:18:21.216Z,33.23
2019-03-01T17:23:24.627Z,37.60
2019-03-01T17:28:28.042Z,42.40
2019-03-01T17:33:31.452Z,40.90
2019-03-01T17:38:35.176Z,39.27
2019-03-01T17:43:39.238Z,42.27
2019-03-01T17:48:42.662Z,43.67
2019-03-01T17:53:52.022Z,45.33
2019-03-01T17:58:55.685Z,39.20
2019-03-01T18:04:01.684Z,43.27
2019-03-01T18:09:06.225Z,37.50
2019-03-01T18:14:13.832Z,36.73
2019-03-01T18:19:17.886Z,37.77
2019-03-01T18:24:21.582Z,36.87
2019-03-01T18:29:31.223Z,38.53
2019-03-01T18:34:36.403Z,34.93
2019-03-01T18:39:41.230Z,34.27
2019-03-01T18:44:44.666Z,33.97
2019-03-01T18:49:47.740Z,35.30
2019-03-01T18:54:53.835Z,35.63
2019-03-01T18:59:59.906Z,34.03
2019-03-01T19:05:04.511Z,34.77
2019-03-01T19:10:11.232Z,31.37
2019-03-01T19:15:16.419Z,30.27
2019-03-01T19:20:21.069Z,35.07
2019-03-01T19:25:25.293Z,28.80
2019-03-01T19:30:29.629Z,31.63
2019-03-01T19:35:33.019Z,35.70
2019-03-01T19:40:37.256Z,35.33
2019-03-01T19:45:41.468Z,34.93
2019-03-01T19:50:44.991Z,35.03
2019-03-01T19:55:48.458Z,32.37
2019-03-01T20:00:52.147Z,37.23
2019-03-01T20:05:55.229Z,45.03
2019-03-01T20:10:58.645Z,40.30
2019-03-01T20:16:02.290Z,38.33
2019-03-01T20:21:05.867Z,36.27
2019-03-01T20:26:10.182Z,33.60
2019-03-01T20:31:13.877Z,30.43
2019-03-01T20:36:18.529Z,31.40
2019-03-01T20:41:22.180Z,30.87
2019-03-01T20:46:25.602Z,27.70
2019-03-01T20:51:29.374Z,31.17
2019-03-01T20:56:32.701Z,28.27
2019-03-01T21:01:37.257Z,29.50
2019-03-01T21:06:41.475Z,29.73
2019-03-01T21:11:45.040Z,34.63
2019-03-01T21:16:48.430Z,29.87
2019-03-01T21:21:51.840Z,31.50
2019-03-01T21:26:54.954Z,29.67
2019-03-01T21:31:58.301Z,30.17
2019-03-01T21:37:02.661Z,27.30
2019-03-01T21:42:06.841Z,25.27
2019-03-01T21:47:12.204Z,25.93
2019-03-01T21:52:14.981Z,27.07
2019-03-01T21:57:18.061Z,26.17
2019-03-01T22:02:21.478Z,26.73
2019-03-01T22:07:25.223Z,26.87
2019-03-01T22:12:28.969Z,29.37
2019-03-01T22:17:32.360Z,30.43
2019-03-01T22:22:37.530Z,29.17
2019-03-01T22:32:48.941Z,22.93
2019-03-01T22:37:53.106Z,20.68
2019-03-01T22:42:56.546Z,21.30
2019-03-01T22:47:59.919Z,19.87
2019-03-01T22:53:03.240Z,18.13
2019-03-01T22:58:08.082Z,20.43
2019-03-01T23:03:11.727Z,21.53
2019-03-01T23:08:15.151Z,24.27
2019-03-01T23:13:20.771Z,23.17
2019-03-01T23:18:23.843Z,25.47
2019-03-01T23:23:27.199Z,27.07
2019-03-01T23:28:30.597Z,26.30
2019-03-01T23:33:33.927Z,25.43
2019-03-01T23:38:37.007Z,25.73
2019-03-01T23:43:40.350Z,24.80
2019-03-01T23:48:45.566Z,25.03
2019-03-01T23:53:48.507Z,23.83
2019-03-01T23:58:51.850Z,25.10
